Terminal Aerodrome Forecast
Issued by NWS

Home | Current Version | Previous Version | Text Only | Print | Product List | Glossary On
Versions: 1 2 3 4 5 6 7 8 9 10 11 12 13 14 15 16 17 18
347
FTUS43 KGRR 171027 AAB
TAFBTL
TAF AMD
KBTL 171027Z 1710/1806 12007KT 1SM -RA BR VCTS VV002CB
      TEMPO 1711/1712 1/2SM +TSRA FG
     FM171215 20006KT 1SM -RA BR OVC002
     FM171800 26010KT 3SM BR OVC005
     FM172200 26010KT 2SM -RA BR OVC005
     FM180500 26009KT 2SM BR OVC005=

USA.gov is the U.S. government's official web portal to all federal, state and local government web resources and services.